sensor_id;sensor_type;location;lat;lon;timestamp;temperature;humidity
584;HTU21D;27024;54.068;12.116;2023-03-01T00:01:12;-0.68;110.91
584;HTU21D;27024;54.068;12.116;2023-03-01T00:03:39;-0.59;110.46
584;HTU21D;27024;54.068;12.116;2023-03-01T00:06:06;-0.66;110.24
584;HTU21D;27024;54.068;12.116;2023-03-01T00:08:34;-0.67;110.69
584;HTU21D;27024;54.068;12.116;2023-03-01T00:11:07;-0.70;110.89
584;HTU21D;27024;54.068;12.116;2023-03-01T00:13:36;-0.62;111.00
584;HTU21D;27024;54.068;12.116;2023-03-01T00:16:04;-0.51;110.23
584;HTU21D;27024;54.068;12.116;2023-03-01T00:18:32;-0.42;109.15
584;HTU21D;27024;54.068;12.116;2023-03-01T00:20:59;-0.53;109.79
584;HTU21D;27024;54.068;12.116;2023-03-01T00:23:27;-0.55;110.12
584;HTU21D;27024;54.068;12.116;2023-03-01T00:25:55;-0.60;110.55
584;HTU21D;27024;54.068;12.116;2023-03-01T00:28:22;-0.69;110.69
584;HTU21D;27024;54.068;12.116;2023-03-01T00:30:49;-0.67;110.10
584;HTU21D;27024;54.068;12.116;2023-03-01T00:33:16;-0.68;110.40
584;HTU21D;27024;54.068;12.116;2023-03-01T00:35:43;-0.69;110.54
584;HTU21D;27024;54.068;12.116;2023-03-01T00:38:10;-0.77;110.97
584;HTU21D;27024;54.068;12.116;2023-03-01T00:40:37;-0.69;110.95
584;HTU21D;27024;54.068;12.116;2023-03-01T00:43:05;-0.71;109.97
584;HTU21D;27024;54.068;12.116;2023-03-01T00:45:32;-0.58;110.23
584;HTU21D;27024;54.068;12.116;2023-03-01T00:47:59;-0.57;110.04
584;HTU21D;27024;54.068;12.116;2023-03-01T00:50:26;-0.66;110.33
584;HTU21D;27024;54.068;12.116;2023-03-01T00:52:55;-0.73;110.47
584;HTU21D;27024;54.068;12.116;2023-03-01T00:55:23;-0.76;110.88
584;HTU21D;27024;54.068;12.116;2023-03-01T00:57:51;-0.82;111.27
584;HTU21D;27024;54.068;12.116;2023-03-01T01:00:18;-0.88;111.65
584;HTU21D;27024;54.068;12.116;2023-03-01T01:02:45;-0.88;111.00
584;HTU21D;27024;54.068;12.116;2023-03-01T01:05:14;-0.91;110.74
584;HTU21D;27024;54.068;12.116;2023-03-01T01:07:41;-0.82;110.08
584;HTU21D;27024;54.068;12.116;2023-03-01T01:10:08;-0.87;110.29
584;HTU21D;27024;54.068;12.116;2023-03-01T01:12:39;-0.81;110.06
584;HTU21D;27024;54.068;12.116;2023-03-01T01:15:06;-0.86;110.07
584;HTU21D;27024;54.068;12.116;2023-03-01T01:17:33;-0.95;110.25
584;HTU21D;27024;54.068;12.116;2023-03-01T01:20:00;-0.95;110.09
584;HTU21D;27024;54.068;12.116;2023-03-01T01:22:26;-0.95;109.66
584;HTU21D;27024;54.068;12.116;2023-03-01T01:24:53;-0.95;109.55
584;HTU21D;27024;54.068;12.116;2023-03-01T01:27:20;-0.97;109.98
584;HTU21D;27024;54.068;12.116;2023-03-01T01:29:48;-0.87;109.78
584;HTU21D;27024;54.068;12.116;2023-03-01T01:32:15;-0.88;109.59
584;HTU21D;27024;54.068;12.116;2023-03-01T01:34:42;-0.81;109.23
584;HTU21D;27024;54.068;12.116;2023-03-01T01:37:09;-0.79;109.30
584;HTU21D;27024;54.068;12.116;2023-03-01T01:39:36;-0.68;108.32
584;HTU21D;27024;54.068;12.116;2023-03-01T01:42:03;-0.68;108.04
584;HTU21D;27024;54.068;12.116;2023-03-01T01:44:30;-0.69;107.85
584;HTU21D;27024;54.068;12.116;2023-03-01T01:47:07;-0.61;106.88
584;HTU21D;27024;54.068;12.116;2023-03-01T01:49:53;-0.60;106.76
584;HTU21D;27024;54.068;12.116;2023-03-01T01:52:27;-0.57;106.66
584;HTU21D;27024;54.068;12.116;2023-03-01T01:54:57;-0.59;106.67
584;HTU21D;27024;54.068;12.116;2023-03-01T01:57:31;-0.59;107.48
584;HTU21D;27024;54.068;12.116;2023-03-01T02:00:04;-0.46;106.11
584;HTU21D;27024;54.068;12.116;2023-03-01T02:02:32;-0.46;105.06
584;HTU21D;27024;54.068;12.116;2023-03-01T02:05:06;-0.44;104.61
584;HTU21D;27024;54.068;12.116;2023-03-01T02:07:38;-0.54;106.41
584;HTU21D;27024;54.068;12.116;2023-03-01T02:10:06;-0.62;107.76
584;HTU21D;27024;54.068;12.116;2023-03-01T02:12:34;-0.69;107.34
584;HTU21D;27024;54.068;12.116;2023-03-01T02:15:02;-0.74;108.11
584;HTU21D;27024;54.068;12.116;2023-03-01T02:17:29;-0.74;108.28
584;HTU21D;27024;54.068;12.116;2023-03-01T02:22:39;-0.82;108.51
584;HTU21D;27024;54.068;12.116;2023-03-01T02:30:22;-0.72;106.72
584;HTU21D;27024;54.068;12.116;2023-03-01T02:32:51;-0.81;106.82
584;HTU21D;27024;54.068;12.116;2023-03-01T02:35:20;-0.83;107.50
584;HTU21D;27024;54.068;12.116;2023-03-01T02:37:47;-0.86;108.03
584;HTU21D;27024;54.068;12.116;2023-03-01T02:40:17;-0.86;107.19
584;HTU21D;27024;54.068;12.116;2023-03-01T02:42:56;-0.84;106.50
584;HTU21D;27024;54.068;12.116;2023-03-01T02:45:24;-0.90;106.98
584;HTU21D;27024;54.068;12.116;2023-03-01T02:47:54;-0.94;107.15
584;HTU21D;27024;54.068;12.116;2023-03-01T02:53:25;-0.99;107.33
584;HTU21D;27024;54.068;12.116;2023-03-01T02:55:54;-0.94;106.80
584;HTU21D;27024;54.068;12.116;2023-03-01T02:58:21;-0.93;106.61
584;HTU21D;27024;54.068;12.116;2023-03-01T03:00:48;-0.94;106.78
584;HTU21D;27024;54.068;12.116;2023-03-01T03:03:17;-0.98;107.47
584;HTU21D;27024;54.068;12.116;2023-03-01T03:05:46;-1.12;108.43
584;HTU21D;27024;54.068;12.116;2023-03-01T03:08:14;-1.06;107.26
584;HTU21D;27024;54.068;12.116;2023-03-01T03:10:50;-0.96;106.76
584;HTU21D;27024;54.068;12.116;2023-03-01T03:13:17;-0.87;105.48
584;HTU21D;27024;54.068;12.116;2023-03-01T03:15:45;-0.99;106.27
584;HTU21D;27024;54.068;12.116;2023-03-01T03:18:15;-1.02;106.22
584;HTU21D;27024;54.068;12.116;2023-03-01T03:20:43;-0.90;105.42
584;HTU21D;27024;54.068;12.116;2023-03-01T03:23:10;-0.96;106.14
584;HTU21D;27024;54.068;12.116;2023-03-01T03:25:37;-0.96;105.95
584;HTU21D;27024;54.068;12.116;2023-03-01T03:28:06;-1.03;106.53
584;HTU21D;27024;54.068;12.116;2023-03-01T03:30:39;-0.97;106.67
584;HTU21D;27024;54.068;12.116;2023-03-01T03:33:07;-0.94;106.15
584;HTU21D;27024;54.068;12.116;2023-03-01T03:35:45;-1.00;106.49
584;HTU21D;27024;54.068;12.116;2023-03-01T03:38:14;-1.11;106.32
584;HTU21D;27024;54.068;12.116;2023-03-01T03:40:51;-1.09;106.93
584;HTU21D;27024;54.068;12.116;2023-03-01T03:43:20;-1.03;106.35
584;HTU21D;27024;54.068;12.116;2023-03-01T03:45:49;-1.10;106.85
584;HTU21D;27024;54.068;12.116;2023-03-01T03:48:16;-1.01;106.69
584;HTU21D;27024;54.068;12.116;2023-03-01T03:50:50;-1.02;106.31
584;HTU21D;27024;54.068;12.116;2023-03-01T03:53:18;-1.15;107.53
584;HTU21D;27024;54.068;12.116;2023-03-01T03:55:46;-1.15;107.21
584;HTU21D;27024;54.068;12.116;2023-03-01T03:58:16;-1.28;108.50
584;HTU21D;27024;54.068;12.116;2023-03-01T04:00:48;-1.28;107.97
584;HTU21D;27024;54.068;12.116;2023-03-01T04:03:16;-1.28;107.75
584;HTU21D;27024;54.068;12.116;2023-03-01T04:05:45;-1.25;107.98
584;HTU21D;27024;54.068;12.116;2023-03-01T04:08:13;-1.38;108.94
584;HTU21D;27024;54.068;12.116;2023-03-01T04:10:45;-1.40;109.33
584;HTU21D;27024;54.068;12.116;2023-03-01T04:13:15;-1.47;109.52
584;HTU21D;27024;54.068;12.116;2023-03-01T04:15:42;-1.46;109.90
584;HTU21D;27024;54.068;12.116;2023-03-01T04:18:13;-1.41;110.10
584;HTU21D;27024;54.068;12.116;2023-03-01T04:20:42;-1.34;109.10
584;HTU21D;27024;54.068;12.116;2023-03-01T04:23:17;-1.21;108.42
584;HTU21D;27024;54.068;12.116;2023-03-01T04:25:52;-1.28;108.67
584;HTU21D;27024;54.068;12.116;2023-03-01T04:28:28;-1.36;109.78
584;HTU21D;27024;54.068;12.116;2023-03-01T04:30:56;-1.58;110.36
584;HTU21D;27024;54.068;12.116;2023-03-01T04:33:24;-1.54;110.08
584;HTU21D;27024;54.068;12.116;2023-03-01T04:35:52;-1.46;109.43
584;HTU21D;27024;54.068;12.116;2023-03-01T04:38:19;-1.23;107.78
584;HTU21D;27024;54.068;12.116;2023-03-01T04:40:46;-1.17;107.11
584;HTU21D;27024;54.068;12.116;2023-03-01T04:43:13;-1.12;106.62
584;HTU21D;27024;54.068;12.116;2023-03-01T04:45:41;-1.24;107.14
584;HTU21D;27024;54.068;12.116;2023-03-01T04:48:08;-1.30;107.27
584;HTU21D;27024;54.068;12.116;2023-03-01T04:50:35;-1.32;107.37
584;HTU21D;27024;54.068;12.116;2023-03-01T04:53:02;-1.26;108.27
584;HTU21D;27024;54.068;12.116;2023-03-01T04:55:29;-1.34;108.35
584;HTU21D;27024;54.068;12.116;2023-03-01T04:57:56;-1.41;109.07
584;HTU21D;27024;54.068;12.116;2023-03-01T05:00:23;-1.40;108.70
584;HTU21D;27024;54.068;12.116;2023-03-01T05:02:57;-1.43;109.12
584;HTU21D;27024;54.068;12.116;2023-03-01T05:05:30;-1.32;108.84
584;HTU21D;27024;54.068;12.116;2023-03-01T05:07:59;-1.40;109.19
584;HTU21D;27024;54.068;12.116;2023-03-01T05:10:28;-1.41;109.58
584;HTU21D;27024;54.068;12.116;2023-03-01T05:12:59;-1.30;108.80
584;HTU21D;27024;54.068;12.116;2023-03-01T05:15:27;-1.40;109.21
584;HTU21D;27024;54.068;12.116;2023-03-01T05:17:56;-1.39;109.70
584;HTU21D;27024;54.068;12.116;2023-03-01T05:20:29;-1.20;108.43
584;HTU21D;27024;54.068;12.116;2023-03-01T05:22:59;-1.23;107.56
584;HTU21D;27024;54.068;12.116;2023-03-01T05:25:26;-1.24;107.91
584;HTU21D;27024;54.068;12.116;2023-03-01T05:27:53;-0.86;108.62
584;HTU21D;27024;54.068;12.116;2023-03-01T05:30:20;-0.75;108.30
584;HTU21D;27024;54.068;12.116;2023-03-01T05:32:50;-0.47;114.37
584;HTU21D;27024;54.068;12.116;2023-03-01T05:35:22;-0.96;109.40
584;HTU21D;27024;54.068;12.116;2023-03-01T05:37:49;-1.01;108.27
584;HTU21D;27024;54.068;12.116;2023-03-01T05:40:21;-1.08;107.58
584;HTU21D;27024;54.068;12.116;2023-03-01T05:42:52;-1.30;108.94
584;HTU21D;27024;54.068;12.116;2023-03-01T05:45:18;-1.32;109.20
584;HTU21D;27024;54.068;12.116;2023-03-01T05:47:47;-1.33;108.37
584;HTU21D;27024;54.068;12.116;2023-03-01T05:52:40;-1.40;108.85
584;HTU21D;27024;54.068;12.116;2023-03-01T05:55:07;-1.34;108.47
584;HTU21D;27024;54.068;12.116;2023-03-01T05:57:34;-1.50;109.29
584;HTU21D;27024;54.068;12.116;2023-03-01T06:00:01;-1.54;109.68
584;HTU21D;27024;54.068;12.116;2023-03-01T06:02:28;-1.62;109.75
584;HTU21D;27024;54.068;12.116;2023-03-01T06:04:55;-1.64;109.83
584;HTU21D;27024;54.068;12.116;2023-03-01T06:07:22;-1.61;109.52
584;HTU21D;27024;54.068;12.116;2023-03-01T06:09:49;-1.64;109.38
584;HTU21D;27024;54.068;12.116;2023-03-01T06:12:16;-1.61;109.41
584;HTU21D;27024;54.068;12.116;2023-03-01T06:14:45;-1.55;109.47
584;HTU21D;27024;54.068;12.116;2023-03-01T06:17:13;-1.40;108.91
584;HTU21D;27024;54.068;12.116;2023-03-01T06:19:39;-1.27;108.68
584;HTU21D;27024;54.068;12.116;2023-03-01T06:22:06;-1.19;108.56
584;HTU21D;27024;54.068;12.116;2023-03-01T06:24:33;-1.08;108.52
584;HTU21D;27024;54.068;12.116;2023-03-01T06:27:00;-1.04;108.30
584;HTU21D;27024;54.068;12.116;2023-03-01T06:29:27;-1.03;107.97
584;HTU21D;27024;54.068;12.116;2023-03-01T06:31:54;-1.33;108.89
584;HTU21D;27024;54.068;12.116;2023-03-01T06:34:20;-1.29;109.36
584;HTU21D;27024;54.068;12.116;2023-03-01T06:36:48;-1.12;108.65
584;HTU21D;27024;54.068;12.116;2023-03-01T06:39:15;-1.19;108.97
584;HTU21D;27024;54.068;12.116;2023-03-01T06:41:44;-1.20;109.54
584;HTU21D;27024;54.068;12.116;2023-03-01T06:44:10;-1.20;110.20
584;HTU21D;27024;54.068;12.116;2023-03-01T06:46:39;-1.19;110.05
584;HTU21D;27024;54.068;12.116;2023-03-01T06:49:06;-1.06;109.24
584;HTU21D;27024;54.068;12.116;2023-03-01T06:51:36;-0.99;108.79
584;HTU21D;27024;54.068;12.116;2023-03-01T06:54:06;0.08;117.00
584;HTU21D;27024;54.068;12.116;2023-03-01T06:56:33;1.84;110.37
584;HTU21D;27024;54.068;12.116;2023-03-01T06:59:00;0.51;111.14
584;HTU21D;27024;54.068;12.116;2023-03-01T07:01:26;-0.14;110.99
584;HTU21D;27024;54.068;12.116;2023-03-01T07:03:53;-0.21;110.87
584;HTU21D;27024;54.068;12.116;2023-03-01T07:06:21;-0.21;110.63
584;HTU21D;27024;54.068;12.116;2023-03-01T07:08:48;-0.22;110.55
584;HTU21D;27024;54.068;12.116;2023-03-01T07:11:15;-0.24;109.85
584;HTU21D;27024;54.068;12.116;2023-03-01T07:13:42;-0.15;109.14
584;HTU21D;27024;54.068;12.116;2023-03-01T07:16:09;-0.14;109.03
584;HTU21D;27024;54.068;12.116;2023-03-01T07:18:36;0.02;108.30
584;HTU21D;27024;54.068;12.116;2023-03-01T07:21:12;0.18;107.64
584;HTU21D;27024;54.068;12.116;2023-03-01T07:23:39;0.37;107.40
584;HTU21D;27024;54.068;12.116;2023-03-01T07:26:06;0.57;107.11
584;HTU21D;27024;54.068;12.116;2023-03-01T07:28:33;0.55;107.61
584;HTU21D;27024;54.068;12.116;2023-03-01T07:31:03;1.43;114.07
584;HTU21D;27024;54.068;12.116;2023-03-01T07:33:30;1.02;107.95
584;HTU21D;27024;54.068;12.116;2023-03-01T07:36:01;0.86;108.68
584;HTU21D;27024;54.068;12.116;2023-03-01T07:38:29;1.04;110.22
584;HTU21D;27024;54.068;12.116;2023-03-01T07:41:00;1.18;110.41
584;HTU21D;27024;54.068;12.116;2023-03-01T07:43:29;1.18;111.87
584;HTU21D;27024;54.068;12.116;2023-03-01T07:46:00;1.19;113.17
584;HTU21D;27024;54.068;12.116;2023-03-01T07:48:28;1.17;113.87
584;HTU21D;27024;54.068;12.116;2023-03-01T07:50:58;1.26;114.83
584;HTU21D;27024;54.068;12.116;2023-03-01T07:53:26;1.55;114.78
584;HTU21D;27024;54.068;12.116;2023-03-01T07:56:04;1.52;115.35
584;HTU21D;27024;54.068;12.116;2023-03-01T07:58:31;1.42;116.86
584;HTU21D;27024;54.068;12.116;2023-03-01T08:01:05;1.46;117.61
584;HTU21D;27024;54.068;12.116;2023-03-01T08:03:33;1.43;118.38
584;HTU21D;27024;54.068;12.116;2023-03-01T08:06:02;1.47;118.31
584;HTU21D;27024;54.068;12.116;2023-03-01T08:08:30;1.53;118.01
584;HTU21D;27024;54.068;12.116;2023-03-01T08:10:58;2.00;118.24
584;HTU21D;27024;54.068;12.116;2023-03-01T08:13:25;1.84;118.47
584;HTU21D;27024;54.068;12.116;2023-03-01T08:15:52;1.90;118.99
584;HTU21D;27024;54.068;12.116;2023-03-01T08:18:20;1.87;118.99
584;HTU21D;27024;54.068;12.116;2023-03-01T08:20:47;1.86;118.99
584;HTU21D;27024;54.068;12.116;2023-03-01T08:23:14;1.99;118.99
584;HTU21D;27024;54.068;12.116;2023-03-01T08:25:41;1.91;118.99
584;HTU21D;27024;54.068;12.116;2023-03-01T08:28:08;2.03;118.99
584;HTU21D;27024;54.068;12.116;2023-03-01T08:30:35;2.11;118.99
584;HTU21D;27024;54.068;12.116;2023-03-01T08:33:02;2.17;118.67
584;HTU21D;27024;54.068;12.116;2023-03-01T08:35:29;2.27;118.22
584;HTU21D;27024;54.068;12.116;2023-03-01T08:37:55;2.35;117.88
584;HTU21D;27024;54.068;12.116;2023-03-01T08:40:22;2.41;117.79
584;HTU21D;27024;54.068;12.116;2023-03-01T08:42:49;2.55;117.02
584;HTU21D;27024;54.068;12.116;2023-03-01T08:45:16;2.57;116.50
584;HTU21D;27024;54.068;12.116;2023-03-01T08:47:45;2.64;115.35
584;HTU21D;27024;54.068;12.116;2023-03-01T08:50:12;2.64;116.06
584;HTU21D;27024;54.068;12.116;2023-03-01T08:52:38;2.65;116.94
584;HTU21D;27024;54.068;12.116;2023-03-01T08:55:06;2.91;116.32
584;HTU21D;27024;54.068;12.116;2023-03-01T08:57:33;2.81;114.48
584;HTU21D;27024;54.068;12.116;2023-03-01T08:59:59;2.65;115.23
584;HTU21D;27024;54.068;12.116;2023-03-01T09:02:26;2.74;115.38
584;HTU21D;27024;54.068;12.116;2023-03-01T09:04:53;2.84;115.70
584;HTU21D;27024;54.068;12.116;2023-03-01T09:07:20;2.85;115.07
584;HTU21D;27024;54.068;12.116;2023-03-01T09:09:47;3.12;113.13
584;HTU21D;27024;54.068;12.116;2023-03-01T09:12:13;3.27;112.50
584;HTU21D;27024;54.068;12.116;2023-03-01T09:14:40;3.03;113.97
584;HTU21D;27024;54.068;12.116;2023-03-01T09:17:07;3.14;114.30
584;HTU21D;27024;54.068;12.116;2023-03-01T09:19:34;3.01;114.63
584;HTU21D;27024;54.068;12.116;2023-03-01T09:22:03;3.11;114.60
584;HTU21D;27024;54.068;12.116;2023-03-01T09:24:30;3.16;114.16
584;HTU21D;27024;54.068;12.116;2023-03-01T09:26:57;3.16;113.87
584;HTU21D;27024;54.068;12.116;2023-03-01T09:29:24;3.18;113.69
584;HTU21D;27024;54.068;12.116;2023-03-01T09:31:52;2.82;113.89
584;HTU21D;27024;54.068;12.116;2023-03-01T09:34:22;2.95;115.98
584;HTU21D;27024;54.068;12.116;2023-03-01T09:36:50;3.03;113.74
584;HTU21D;27024;54.068;12.116;2023-03-01T09:39:18;3.15;113.80
584;HTU21D;27024;54.068;12.116;2023-03-01T09:41:49;3.01;114.28
584;HTU21D;27024;54.068;12.116;2023-03-01T09:44:40;3.12;115.37
584;HTU21D;27024;54.068;12.116;2023-03-01T09:47:19;3.33;114.11
584;HTU21D;27024;54.068;12.116;2023-03-01T09:50:16;3.24;114.39
584;HTU21D;27024;54.068;12.116;2023-03-01T09:53:08;3.16;114.92
584;HTU21D;27024;54.068;12.116;2023-03-01T09:56:00;3.11;117.06
584;HTU21D;27024;54.068;12.116;2023-03-01T10:01:46;3.39;114.56
584;HTU21D;27024;54.068;12.116;2023-03-01T10:09:45;3.54;115.39
584;HTU21D;27024;54.068;12.116;2023-03-01T10:12:23;3.50;116.12
584;HTU21D;27024;54.068;12.116;2023-03-01T10:15:10;3.56;115.63
584;HTU21D;27024;54.068;12.116;2023-03-01T10:18:01;3.53;116.39
584;HTU21D;27024;54.068;12.116;2023-03-01T10:20:54;3.60;116.14
584;HTU21D;27024;54.068;12.116;2023-03-01T10:23:23;3.53;116.87
584;HTU21D;27024;54.068;12.116;2023-03-01T10:28:42;3.70;117.15
584;HTU21D;27024;54.068;12.116;2023-03-01T10:31:14;3.80;115.97
584;HTU21D;27024;54.068;12.116;2023-03-01T10:33:41;3.92;115.64
584;HTU21D;27024;54.068;12.116;2023-03-01T10:36:09;3.93;115.62
584;HTU21D;27024;54.068;12.116;2023-03-01T10:38:49;3.98;115.41
584;HTU21D;27024;54.068;12.116;2023-03-01T10:41:19;4.05;115.82
584;HTU21D;27024;54.068;12.116;2023-03-01T10:43:52;4.01;115.38
584;HTU21D;27024;54.068;12.116;2023-03-01T10:46:28;3.98;114.91
584;HTU21D;27024;54.068;12.116;2023-03-01T10:49:07;4.43;113.97
584;HTU21D;27024;54.068;12.116;2023-03-01T10:51:34;4.43;114.21
584;HTU21D;27024;54.068;12.116;2023-03-01T10:54:02;4.50;112.97
584;HTU21D;27024;54.068;12.116;2023-03-01T10:56:45;4.45;112.96
584;HTU21D;27024;54.068;12.116;2023-03-01T10:59:42;4.67;112.43
584;HTU21D;27024;54.068;12.116;2023-03-01T11:02:23;4.66;112.97
584;HTU21D;27024;54.068;12.116;2023-03-01T11:05:01;4.63;112.82
584;HTU21D;27024;54.068;12.116;2023-03-01T11:07:28;4.69;112.39
584;HTU21D;27024;54.068;12.116;2023-03-01T11:09:56;4.69;112.32
584;HTU21D;27024;54.068;12.116;2023-03-01T11:12:24;4.73;112.45
584;HTU21D;27024;54.068;12.116;2023-03-01T11:14:53;5.08;111.68
584;HTU21D;27024;54.068;12.116;2023-03-01T11:17:28;5.13;111.45
584;HTU21D;27024;54.068;12.116;2023-03-01T11:20:15;5.11;110.71
584;HTU21D;27024;54.068;12.116;2023-03-01T11:22:46;5.11;110.82
584;HTU21D;27024;54.068;12.116;2023-03-01T11:25:14;5.17;111.29
584;HTU21D;27024;54.068;12.116;2023-03-01T11:27:43;5.17;110.77
584;HTU21D;27024;54.068;12.116;2023-03-01T11:30:31;5.37;109.37
584;HTU21D;27024;54.068;12.116;2023-03-01T11:33:16;5.50;108.28
584;HTU21D;27024;54.068;12.116;2023-03-01T11:35:53;5.48;108.62
584;HTU21D;27024;54.068;12.116;2023-03-01T11:38:26;5.47;108.81
584;HTU21D;27024;54.068;12.116;2023-03-01T11:44:03;5.50;109.43
584;HTU21D;27024;54.068;12.116;2023-03-01T11:49:31;5.67;108.30
584;HTU21D;27024;54.068;12.116;2023-03-01T11:57:26;5.70;109.39
584;HTU21D;27024;54.068;12.116;2023-03-01T12:08:40;5.83;108.70
584;HTU21D;27024;54.068;12.116;2023-03-01T12:23:04;5.76;109.20
584;HTU21D;27024;54.068;12.116;2023-03-01T12:42:39;5.30;111.98
584;HTU21D;27024;54.068;12.116;2023-03-01T12:45:40;5.33;111.75
584;HTU21D;27024;54.068;12.116;2023-03-01T12:48:18;5.43;111.42
584;HTU21D;27024;54.068;12.116;2023-03-01T12:50:53;5.48;110.80
584;HTU21D;27024;54.068;12.116;2023-03-01T12:53:23;5.27;111.82
584;HTU21D;27024;54.068;12.116;2023-03-01T12:55:54;5.17;112.20
584;HTU21D;27024;54.068;12.116;2023-03-01T13:04:28;5.12;111.83
584;HTU21D;27024;54.068;12.116;2023-03-01T13:07:24;5.05;112.29
584;HTU21D;27024;54.068;12.116;2023-03-01T13:09:55;5.03;112.58
584;HTU21D;27024;54.068;12.116;2023-03-01T13:13:14;5.11;112.90
584;HTU21D;27024;54.068;12.116;2023-03-01T13:15:45;5.28;112.52
584;HTU21D;27024;54.068;12.116;2023-03-01T13:20:48;5.21;111.11
584;HTU21D;27024;54.068;12.116;2023-03-01T13:33:46;5.07;112.50
584;HTU21D;27024;54.068;12.116;2023-03-01T13:38:59;5.01;113.52
584;HTU21D;27024;54.068;12.116;2023-03-01T13:46:58;4.97;114.70
584;HTU21D;27024;54.068;12.116;2023-03-01T13:52:40;5.04;113.68
584;HTU21D;27024;54.068;12.116;2023-03-01T13:57:46;4.94;113.92
584;HTU21D;27024;54.068;12.116;2023-03-01T14:00:36;4.89;113.76
584;HTU21D;27024;54.068;12.116;2023-03-01T14:03:19;5.25;115.64
584;HTU21D;27024;54.068;12.116;2023-03-01T14:06:07;5.16;113.65
584;HTU21D;27024;54.068;12.116;2023-03-01T14:08:42;5.03;114.46
584;HTU21D;27024;54.068;12.116;2023-03-01T14:19:23;5.82;117.47
584;HTU21D;27024;54.068;12.116;2023-03-01T14:24:40;5.10;114.57
584;HTU21D;27024;54.068;12.116;2023-03-01T14:27:11;5.05;114.40
584;HTU21D;27024;54.068;12.116;2023-03-01T14:29:40;4.88;115.22
584;HTU21D;27024;54.068;12.116;2023-03-01T14:32:20;4.82;115.12
584;HTU21D;27024;54.068;12.116;2023-03-01T14:34:48;4.88;114.81
584;HTU21D;27024;54.068;12.116;2023-03-01T14:37:26;4.79;114.97
584;HTU21D;27024;54.068;12.116;2023-03-01T14:39:54;4.67;115.52
584;HTU21D;27024;54.068;12.116;2023-03-01T14:42:22;4.60;115.76
584;HTU21D;27024;54.068;12.116;2023-03-01T14:44:51;4.59;115.93
584;HTU21D;27024;54.068;12.116;2023-03-01T14:47:33;4.41;116.29
584;HTU21D;27024;54.068;12.116;2023-03-01T14:52:41;4.27;117.04
584;HTU21D;27024;54.068;12.116;2023-03-01T14:55:29;4.31;116.75
584;HTU21D;27024;54.068;12.116;2023-03-01T14:57:57;4.28;116.17
584;HTU21D;27024;54.068;12.116;2023-03-01T15:00:30;4.24;116.25
584;HTU21D;27024;54.068;12.116;2023-03-01T15:03:04;4.18;116.57
584;HTU21D;27024;54.068;12.116;2023-03-01T15:05:36;4.12;116.56
584;HTU21D;27024;54.068;12.116;2023-03-01T15:08:03;4.18;115.93
584;HTU21D;27024;54.068;12.116;2023-03-01T15:10:33;4.20;116.64
584;HTU21D;27024;54.068;12.116;2023-03-01T15:13:21;4.23;115.42
584;HTU21D;27024;54.068;12.116;2023-03-01T15:15:51;4.10;115.67
584;HTU21D;27024;54.068;12.116;2023-03-01T15:18:25;3.94;116.35
584;HTU21D;27024;54.068;12.116;2023-03-01T15:20:53;3.94;116.89
584;HTU21D;27024;54.068;12.116;2023-03-01T15:23:28;3.95;117.20
584;HTU21D;27024;54.068;12.116;2023-03-01T15:25:57;3.95;117.24
584;HTU21D;27024;54.068;12.116;2023-03-01T15:28:27;3.97;117.13
584;HTU21D;27024;54.068;12.116;2023-03-01T15:33:32;3.82;117.45
584;HTU21D;27024;54.068;12.116;2023-03-01T15:36:02;4.01;118.03
584;HTU21D;27024;54.068;12.116;2023-03-01T15:38:55;4.07;116.94
584;HTU21D;27024;54.068;12.116;2023-03-01T15:41:45;3.92;117.50
584;HTU21D;27024;54.068;12.116;2023-03-01T15:44:18;3.86;117.95
584;HTU21D;27024;54.068;12.116;2023-03-01T15:46:55;3.67;118.57
584;HTU21D;27024;54.068;12.116;2023-03-01T15:51:54;3.68;118.44
584;HTU21D;27024;54.068;12.116;2023-03-01T15:54:24;3.57;118.60
584;HTU21D;27024;54.068;12.116;2023-03-01T15:56:51;3.64;118.50
584;HTU21D;27024;54.068;12.116;2023-03-01T15:59:18;3.57;118.99
584;HTU21D;27024;54.068;12.116;2023-03-01T16:01:45;3.59;118.99
584;HTU21D;27024;54.068;12.116;2023-03-01T16:04:17;3.61;118.99
584;HTU21D;27024;54.068;12.116;2023-03-01T16:06:47;3.58;118.99
584;HTU21D;27024;54.068;12.116;2023-03-01T16:09:24;3.57;118.99
584;HTU21D;27024;54.068;12.116;2023-03-01T16:11:52;3.59;118.99
584;HTU21D;27024;54.068;12.116;2023-03-01T16:14:19;3.54;118.97
584;HTU21D;27024;54.068;12.116;2023-03-01T16:16:47;3.46;118.99
584;HTU21D;27024;54.068;12.116;2023-03-01T16:19:17;3.45;118.99
584;HTU21D;27024;54.068;12.116;2023-03-01T16:21:43;3.45;118.99
584;HTU21D;27024;54.068;12.116;2023-03-01T16:24:13;3.38;118.99
584;HTU21D;27024;54.068;12.116;2023-03-01T16:26:40;3.33;118.99
584;HTU21D;27024;54.068;12.116;2023-03-01T16:29:08;3.33;118.99
584;HTU21D;27024;54.068;12.116;2023-03-01T16:31:35;3.43;118.84
584;HTU21D;27024;54.068;12.116;2023-03-01T16:34:02;3.25;118.99
584;HTU21D;27024;54.068;12.116;2023-03-01T16:36:29;3.27;118.99
584;HTU21D;27024;54.068;12.116;2023-03-01T16:38:59;3.19;118.99
584;HTU21D;27024;54.068;12.116;2023-03-01T16:41:27;3.17;118.99
584;HTU21D;27024;54.068;12.116;2023-03-01T16:43:54;3.13;118.99
584;HTU21D;27024;54.068;12.116;2023-03-01T16:46:24;3.14;118.99
584;HTU21D;27024;54.068;12.116;2023-03-01T16:48:51;3.06;118.99
584;HTU21D;27024;54.068;12.116;2023-03-01T16:51:19;3.09;118.99
584;HTU21D;27024;54.068;12.116;2023-03-01T16:53:47;2.91;118.99
584;HTU21D;27024;54.068;12.116;2023-03-01T16:56:14;2.94;118.99
584;HTU21D;27024;54.068;12.116;2023-03-01T16:58:41;2.73;118.99
584;HTU21D;27024;54.068;12.116;2023-03-01T17:01:11;2.69;118.99
584;HTU21D;27024;54.068;12.116;2023-03-01T17:03:39;2.61;118.99
584;HTU21D;27024;54.068;12.116;2023-03-01T17:06:11;2.51;118.99
584;HTU21D;27024;54.068;12.116;2023-03-01T17:08:38;2.95;118.99
584;HTU21D;27024;54.068;12.116;2023-03-01T17:11:10;2.66;118.99
584;HTU21D;27024;54.068;12.116;2023-03-01T17:13:38;2.50;118.99
584;HTU21D;27024;54.068;12.116;2023-03-01T17:16:07;2.55;118.99
584;HTU21D;27024;54.068;12.116;2023-03-01T17:18:34;2.52;118.99
584;HTU21D;27024;54.068;12.116;2023-03-01T17:21:01;2.38;118.99
584;HTU21D;27024;54.068;12.116;2023-03-01T17:23:29;2.35;118.99
584;HTU21D;27024;54.068;12.116;2023-03-01T17:25:56;2.39;118.99
584;HTU21D;27024;54.068;12.116;2023-03-01T17:28:26;2.41;118.99
584;HTU21D;27024;54.068;12.116;2023-03-01T17:30:53;2.39;118.99
584;HTU21D;27024;54.068;12.116;2023-03-01T17:33:20;2.39;118.99
584;HTU21D;27024;54.068;12.116;2023-03-01T17:35:49;2.27;118.99
584;HTU21D;27024;54.068;12.116;2023-03-01T17:38:17;2.30;118.99
584;HTU21D;27024;54.068;12.116;2023-03-01T17:40:44;2.35;118.99
584;HTU21D;27024;54.068;12.116;2023-03-01T17:43:16;2.27;118.99
584;HTU21D;27024;54.068;12.116;2023-03-01T17:45:44;2.32;118.99
584;HTU21D;27024;54.068;12.116;2023-03-01T17:48:15;2.29;118.99
584;HTU21D;27024;54.068;12.116;2023-03-01T17:50:42;2.30;118.99